sensor_id;sensor_type;location;lat;lon;timestamp;P1;durP1;ratioP1;P2;durP2;ratioP2
5379;SDS011;2713;42.680;23.310;2024-03-22T00:00:49;18.80;;;12.70;;
5379;SDS011;2713;42.680;23.310;2024-03-22T00:03:16;24.60;;;14.30;;
5379;SDS011;2713;42.680;23.310;2024-03-22T00:05:41;27.33;;;15.10;;
5379;SDS011;2713;42.680;23.310;2024-03-22T00:08:08;24.07;;;15.13;;
5379;SDS011;2713;42.680;23.310;2024-03-22T00:10:34;27.97;;;17.07;;
5379;SDS011;2713;42.680;23.310;2024-03-22T00:13:01;24.70;;;16.20;;
5379;SDS011;2713;42.680;23.310;2024-03-22T00:15:28;25.90;;;16.43;;
5379;SDS011;2713;42.680;23.310;2024-03-22T00:17:55;30.60;;;18.53;;
5379;SDS011;2713;42.680;23.310;2024-03-22T00:20:21;27.27;;;18.00;;
5379;SDS011;2713;42.680;23.310;2024-03-22T00:22:47;31.93;;;18.47;;
5379;SDS011;2713;42.680;23.310;2024-03-22T00:25:13;27.13;;;18.00;;
5379;SDS011;2713;42.680;23.310;2024-03-22T00:27:40;29.93;;;18.40;;
5379;SDS011;2713;42.680;23.310;2024-03-22T00:30:06;28.43;;;16.73;;
5379;SDS011;2713;42.680;23.310;2024-03-22T00:32:35;27.53;;;16.93;;
5379;SDS011;2713;42.680;23.310;2024-03-22T00:35:01;24.00;;;16.47;;
5379;SDS011;2713;42.680;23.310;2024-03-22T00:37:28;24.17;;;15.30;;
5379;SDS011;2713;42.680;23.310;2024-03-22T00:39:54;30.23;;;18.33;;
5379;SDS011;2713;42.680;23.310;2024-03-22T00:42:20;33.97;;;18.40;;
5379;SDS011;2713;42.680;23.310;2024-03-22T00:44:46;25.00;;;16.90;;
5379;SDS011;2713;42.680;23.310;2024-03-22T00:47:13;24.57;;;15.13;;
5379;SDS011;2713;42.680;23.310;2024-03-22T00:49:40;21.13;;;13.90;;
5379;SDS011;2713;42.680;23.310;2024-03-22T00:52:07;21.10;;;14.73;;
5379;SDS011;2713;42.680;23.310;2024-03-22T00:54:33;29.73;;;14.73;;
5379;SDS011;2713;42.680;23.310;2024-03-22T00:57:00;17.87;;;13.03;;
5379;SDS011;2713;42.680;23.310;2024-03-22T00:59:26;20.57;;;13.80;;
5379;SDS011;2713;42.680;23.310;2024-03-22T01:01:53;19.30;;;12.97;;
5379;SDS011;2713;42.680;23.310;2024-03-22T01:04:19;17.37;;;12.30;;
5379;SDS011;2713;42.680;23.310;2024-03-22T01:06:47;16.77;;;11.47;;
5379;SDS011;2713;42.680;23.310;2024-03-22T01:09:14;21.83;;;13.73;;
5379;SDS011;2713;42.680;23.310;2024-03-22T01:11:40;21.60;;;15.03;;
5379;SDS011;2713;42.680;23.310;2024-03-22T01:14:06;22.27;;;14.13;;
5379;SDS011;2713;42.680;23.310;2024-03-22T01:16:33;18.50;;;12.40;;
5379;SDS011;2713;42.680;23.310;2024-03-22T01:18:59;19.27;;;13.90;;
5379;SDS011;2713;42.680;23.310;2024-03-22T01:21:26;19.20;;;12.07;;
5379;SDS011;2713;42.680;23.310;2024-03-22T01:23:53;22.73;;;13.43;;
5379;SDS011;2713;42.680;23.310;2024-03-22T01:26:20;19.77;;;11.93;;
5379;SDS011;2713;42.680;23.310;2024-03-22T01:28:46;21.27;;;12.67;;
5379;SDS011;2713;42.680;23.310;2024-03-22T01:31:13;17.43;;;11.47;;
5379;SDS011;2713;42.680;23.310;2024-03-22T01:33:39;18.33;;;10.90;;
5379;SDS011;2713;42.680;23.310;2024-03-22T01:36:06;19.97;;;11.17;;
5379;SDS011;2713;42.680;23.310;2024-03-22T01:38:32;21.13;;;11.90;;
5379;SDS011;2713;42.680;23.310;2024-03-22T01:41:00;19.90;;;12.97;;
5379;SDS011;2713;42.680;23.310;2024-03-22T01:43:26;15.07;;;10.50;;
5379;SDS011;2713;42.680;23.310;2024-03-22T01:45:53;15.03;;;11.00;;
5379;SDS011;2713;42.680;23.310;2024-03-22T01:48:19;18.90;;;11.10;;
5379;SDS011;2713;42.680;23.310;2024-03-22T01:50:46;17.60;;;12.00;;
5379;SDS011;2713;42.680;23.310;2024-03-22T01:53:12;19.67;;;11.60;;
5379;SDS011;2713;42.680;23.310;2024-03-22T01:55:39;19.70;;;10.63;;
5379;SDS011;2713;42.680;23.310;2024-03-22T01:58:06;18.60;;;10.47;;
5379;SDS011;2713;42.680;23.310;2024-03-22T02:00:33;18.17;;;10.87;;
5379;SDS011;2713;42.680;23.310;2024-03-22T02:02:59;17.40;;;11.60;;
5379;SDS011;2713;42.680;23.310;2024-03-22T02:05:26;18.00;;;11.23;;
5379;SDS011;2713;42.680;23.310;2024-03-22T02:07:51;15.80;;;10.57;;
5379;SDS011;2713;42.680;23.310;2024-03-22T02:10:18;13.60;;;10.50;;
5379;SDS011;2713;42.680;23.310;2024-03-22T02:12:44;15.17;;;10.87;;
5379;SDS011;2713;42.680;23.310;2024-03-22T02:15:12;17.50;;;10.60;;
5379;SDS011;2713;42.680;23.310;2024-03-22T02:17:38;15.60;;;10.67;;
5379;SDS011;2713;42.680;23.310;2024-03-22T02:20:05;17.33;;;10.97;;
5379;SDS011;2713;42.680;23.310;2024-03-22T02:22:33;17.53;;;11.27;;
5379;SDS011;2713;42.680;23.310;2024-03-22T02:25:01;15.13;;;10.00;;
5379;SDS011;2713;42.680;23.310;2024-03-22T02:27:27;14.87;;;10.07;;
5379;SDS011;2713;42.680;23.310;2024-03-22T02:29:54;15.40;;;10.60;;
5379;SDS011;2713;42.680;23.310;2024-03-22T02:32:19;21.40;;;10.87;;
5379;SDS011;2713;42.680;23.310;2024-03-22T02:34:46;21.53;;;12.97;;
5379;SDS011;2713;42.680;23.310;2024-03-22T02:37:12;23.30;;;15.23;;
5379;SDS011;2713;42.680;23.310;2024-03-22T02:39:39;26.27;;;16.70;;
5379;SDS011;2713;42.680;23.310;2024-03-22T02:42:06;24.43;;;16.27;;
5379;SDS011;2713;42.680;23.310;2024-03-22T02:44:33;30.67;;;16.67;;
5379;SDS011;2713;42.680;23.310;2024-03-22T02:46:59;35.23;;;16.13;;
5379;SDS011;2713;42.680;23.310;2024-03-22T02:49:26;26.60;;;17.60;;
5379;SDS011;2713;42.680;23.310;2024-03-22T02:51:52;25.70;;;17.20;;
5379;SDS011;2713;42.680;23.310;2024-03-22T02:54:18;23.90;;;16.33;;
5379;SDS011;2713;42.680;23.310;2024-03-22T02:56:44;26.80;;;17.77;;
5379;SDS011;2713;42.680;23.310;2024-03-22T02:59:12;23.83;;;16.13;;
5379;SDS011;2713;42.680;23.310;2024-03-22T03:01:38;21.83;;;13.73;;
5379;SDS011;2713;42.680;23.310;2024-03-22T03:04:05;19.20;;;13.37;;
5379;SDS011;2713;42.680;23.310;2024-03-22T03:06:31;22.77;;;16.43;;
5379;SDS011;2713;42.680;23.310;2024-03-22T03:08:57;27.43;;;16.60;;
5379;SDS011;2713;42.680;23.310;2024-03-22T03:11:23;24.50;;;15.23;;
5379;SDS011;2713;42.680;23.310;2024-03-22T03:13:50;24.50;;;15.73;;
5379;SDS011;2713;42.680;23.310;2024-03-22T03:16:17;25.03;;;16.00;;
5379;SDS011;2713;42.680;23.310;2024-03-22T03:18:44;26.13;;;17.53;;
5379;SDS011;2713;42.680;23.310;2024-03-22T03:21:09;30.87;;;17.80;;
5379;SDS011;2713;42.680;23.310;2024-03-22T03:23:36;25.90;;;17.10;;
5379;SDS011;2713;42.680;23.310;2024-03-22T03:26:02;30.17;;;17.80;;
5379;SDS011;2713;42.680;23.310;2024-03-22T03:28:29;22.87;;;16.90;;
5379;SDS011;2713;42.680;23.310;2024-03-22T03:30:55;24.30;;;16.70;;
5379;SDS011;2713;42.680;23.310;2024-03-22T03:33:23;29.90;;;16.70;;
5379;SDS011;2713;42.680;23.310;2024-03-22T03:35:48;23.23;;;16.07;;
5379;SDS011;2713;42.680;23.310;2024-03-22T03:38:15;24.60;;;15.47;;
5379;SDS011;2713;42.680;23.310;2024-03-22T03:40:41;19.83;;;13.17;;
5379;SDS011;2713;42.680;23.310;2024-03-22T03:43:08;18.00;;;11.87;;
5379;SDS011;2713;42.680;23.310;2024-03-22T03:45:35;17.63;;;12.50;;
5379;SDS011;2713;42.680;23.310;2024-03-22T03:48:02;17.97;;;12.50;;
5379;SDS011;2713;42.680;23.310;2024-03-22T03:50:30;18.40;;;12.40;;
5379;SDS011;2713;42.680;23.310;2024-03-22T03:52:57;21.07;;;11.87;;
5379;SDS011;2713;42.680;23.310;2024-03-22T03:55:23;18.27;;;11.70;;
5379;SDS011;2713;42.680;23.310;2024-03-22T03:57:50;17.10;;;11.40;;
5379;SDS011;2713;42.680;23.310;2024-03-22T04:00:15;15.50;;;10.70;;
5379;SDS011;2713;42.680;23.310;2024-03-22T04:02:42;15.97;;;10.07;;
5379;SDS011;2713;42.680;23.310;2024-03-22T04:05:08;12.23;;;9.87;;
5379;SDS011;2713;42.680;23.310;2024-03-22T04:07:36;16.80;;;10.60;;
5379;SDS011;2713;42.680;23.310;2024-03-22T04:10:04;17.40;;;10.40;;
5379;SDS011;2713;42.680;23.310;2024-03-22T04:12:31;15.53;;;10.77;;
5379;SDS011;2713;42.680;23.310;2024-03-22T04:14:58;14.30;;;11.23;;
5379;SDS011;2713;42.680;23.310;2024-03-22T04:17:24;18.70;;;11.63;;
5379;SDS011;2713;42.680;23.310;2024-03-22T04:54:12;23.00;;;12.43;;
5379;SDS011;2713;42.680;23.310;2024-03-22T05:35:38;14.60;;;10.57;;
5379;SDS011;2713;42.680;23.310;2024-03-22T05:39:23;16.00;;;9.27;;
5379;SDS011;2713;42.680;23.310;2024-03-22T06:05:44;15.50;;;10.00;;
5379;SDS011;2713;42.680;23.310;2024-03-22T06:09:46;16.87;;;10.10;;
5379;SDS011;2713;42.680;23.310;2024-03-22T06:42:00;14.23;;;10.00;;
5379;SDS011;2713;42.680;23.310;2024-03-22T06:45:33;17.93;;;11.53;;
5379;SDS011;2713;42.680;23.310;2024-03-22T06:48:30;15.27;;;11.10;;
5379;SDS011;2713;42.680;23.310;2024-03-22T06:51:56;13.30;;;10.87;;
5379;SDS011;2713;42.680;23.310;2024-03-22T07:02:25;18.00;;;12.70;;
5379;SDS011;2713;42.680;23.310;2024-03-22T07:05:17;22.70;;;13.47;;
5379;SDS011;2713;42.680;23.310;2024-03-22T07:07:43;21.13;;;12.60;;
5379;SDS011;2713;42.680;23.310;2024-03-22T07:10:09;19.60;;;13.13;;
5379;SDS011;2713;42.680;23.310;2024-03-22T07:12:35;21.83;;;13.93;;
5379;SDS011;2713;42.680;23.310;2024-03-22T07:15:04;19.07;;;12.80;;
5379;SDS011;2713;42.680;23.310;2024-03-22T07:17:31;21.70;;;13.93;;
5379;SDS011;2713;42.680;23.310;2024-03-22T07:19:57;22.53;;;15.27;;
5379;SDS011;2713;42.680;23.310;2024-03-22T07:22:23;25.80;;;16.40;;
5379;SDS011;2713;42.680;23.310;2024-03-22T07:24:50;21.97;;;16.00;;
5379;SDS011;2713;42.680;23.310;2024-03-22T07:27:16;25.27;;;16.90;;
5379;SDS011;2713;42.680;23.310;2024-03-22T07:29:43;22.13;;;14.73;;
5379;SDS011;2713;42.680;23.310;2024-03-22T07:32:11;24.70;;;14.00;;
5379;SDS011;2713;42.680;23.310;2024-03-22T07:34:37;23.60;;;14.83;;
5379;SDS011;2713;42.680;23.310;2024-03-22T07:37:03;22.40;;;14.33;;
5379;SDS011;2713;42.680;23.310;2024-03-22T07:39:30;21.87;;;13.40;;
5379;SDS011;2713;42.680;23.310;2024-03-22T07:41:56;14.90;;;12.03;;
5379;SDS011;2713;42.680;23.310;2024-03-22T07:44:23;16.40;;;11.90;;
5379;SDS011;2713;42.680;23.310;2024-03-22T07:46:49;16.80;;;11.23;;
5379;SDS011;2713;42.680;23.310;2024-03-22T07:49:17;13.03;;;10.30;;
5379;SDS011;2713;42.680;23.310;2024-03-22T07:51:43;16.20;;;10.00;;
5379;SDS011;2713;42.680;23.310;2024-03-22T07:54:10;9.03;;;7.40;;
5379;SDS011;2713;42.680;23.310;2024-03-22T07:56:36;10.83;;;8.10;;
5379;SDS011;2713;42.680;23.310;2024-03-22T07:59:03;14.90;;;8.20;;
5379;SDS011;2713;42.680;23.310;2024-03-22T08:01:28;10.37;;;7.07;;
5379;SDS011;2713;42.680;23.310;2024-03-22T08:03:55;8.60;;;7.40;;
5379;SDS011;2713;42.680;23.310;2024-03-22T08:06:22;9.87;;;7.50;;
5379;SDS011;2713;42.680;23.310;2024-03-22T08:08:49;7.83;;;6.53;;
5379;SDS011;2713;42.680;23.310;2024-03-22T08:11:15;8.77;;;7.00;;
5379;SDS011;2713;42.680;23.310;2024-03-22T08:13:42;12.30;;;6.87;;
5379;SDS011;2713;42.680;23.310;2024-03-22T08:16:07;30.10;;;18.93;;
5379;SDS011;2713;42.680;23.310;2024-03-22T08:18:34;17.50;;;13.03;;
5379;SDS011;2713;42.680;23.310;2024-03-22T08:21:00;9.93;;;6.30;;
5379;SDS011;2713;42.680;23.310;2024-03-22T08:23:29;5.43;;;4.70;;
5379;SDS011;2713;42.680;23.310;2024-03-22T08:25:54;8.80;;;4.77;;
5379;SDS011;2713;42.680;23.310;2024-03-22T08:28:22;5.80;;;4.83;;
5379;SDS011;2713;42.680;23.310;2024-03-22T08:30:48;5.87;;;5.00;;
5379;SDS011;2713;42.680;23.310;2024-03-22T08:33:15;7.27;;;5.67;;
5379;SDS011;2713;42.680;23.310;2024-03-22T08:35:41;7.77;;;6.57;;
5379;SDS011;2713;42.680;23.310;2024-03-22T08:38:08;6.60;;;4.53;;
5379;SDS011;2713;42.680;23.310;2024-03-22T08:40:37;5.33;;;4.83;;
5379;SDS011;2713;42.680;23.310;2024-03-22T08:43:05;4.93;;;4.43;;
5379;SDS011;2713;42.680;23.310;2024-03-22T08:45:32;4.90;;;4.33;;
5379;SDS011;2713;42.680;23.310;2024-03-22T08:47:59;5.07;;;4.57;;
5379;SDS011;2713;42.680;23.310;2024-03-22T08:50:25;4.73;;;4.10;;
5379;SDS011;2713;42.680;23.310;2024-03-22T08:52:52;6.13;;;4.40;;
5379;SDS011;2713;42.680;23.310;2024-03-22T08:55:18;6.07;;;4.53;;
5379;SDS011;2713;42.680;23.310;2024-03-22T08:57:46;5.80;;;5.20;;
5379;SDS011;2713;42.680;23.310;2024-03-22T09:00:12;4.67;;;3.97;;
5379;SDS011;2713;42.680;23.310;2024-03-22T09:02:39;4.90;;;4.40;;
5379;SDS011;2713;42.680;23.310;2024-03-22T09:05:05;5.80;;;4.43;;
5379;SDS011;2713;42.680;23.310;2024-03-22T09:07:33;6.50;;;5.37;;
5379;SDS011;2713;42.680;23.310;2024-03-22T09:09:59;6.10;;;4.30;;
5379;SDS011;2713;42.680;23.310;2024-03-22T09:12:27;4.50;;;4.10;;
5379;SDS011;2713;42.680;23.310;2024-03-22T09:14:54;5.87;;;5.00;;
5379;SDS011;2713;42.680;23.310;2024-03-22T09:17:21;4.93;;;4.37;;
5379;SDS011;2713;42.680;23.310;2024-03-22T09:19:47;4.97;;;4.40;;
5379;SDS011;2713;42.680;23.310;2024-03-22T09:22:14;4.77;;;4.27;;
5379;SDS011;2713;42.680;23.310;2024-03-22T09:24:40;5.10;;;4.00;;
5379;SDS011;2713;42.680;23.310;2024-03-22T09:27:07;4.60;;;3.70;;
5379;SDS011;2713;42.680;23.310;2024-03-22T09:29:35;8.23;;;6.00;;
5379;SDS011;2713;42.680;23.310;2024-03-22T09:32:03;4.47;;;4.07;;
5379;SDS011;2713;42.680;23.310;2024-03-22T09:34:29;6.07;;;3.90;;
5379;SDS011;2713;42.680;23.310;2024-03-22T09:36:56;5.03;;;4.47;;
5379;SDS011;2713;42.680;23.310;2024-03-22T09:39:22;5.10;;;4.13;;
5379;SDS011;2713;42.680;23.310;2024-03-22T09:41:50;4.93;;;4.23;;
5379;SDS011;2713;42.680;23.310;2024-03-22T09:44:17;6.17;;;4.73;;
5379;SDS011;2713;42.680;23.310;2024-03-22T09:46:46;5.10;;;4.27;;
5379;SDS011;2713;42.680;23.310;2024-03-22T09:49:13;4.57;;;4.17;;
5379;SDS011;2713;42.680;23.310;2024-03-22T09:51:43;4.70;;;4.20;;
5379;SDS011;2713;42.680;23.310;2024-03-22T09:54:09;7.80;;;5.93;;
5379;SDS011;2713;42.680;23.310;2024-03-22T09:56:37;7.77;;;4.87;;
5379;SDS011;2713;42.680;23.310;2024-03-22T09:59:04;4.20;;;3.77;;
5379;SDS011;2713;42.680;23.310;2024-03-22T10:01:32;5.07;;;4.27;;
5379;SDS011;2713;42.680;23.310;2024-03-22T10:03:59;5.70;;;4.47;;
5379;SDS011;2713;42.680;23.310;2024-03-22T10:06:28;4.60;;;4.20;;
5379;SDS011;2713;42.680;23.310;2024-03-22T10:08:54;6.37;;;5.77;;
5379;SDS011;2713;42.680;23.310;2024-03-22T10:11:25;5.20;;;4.47;;
5379;SDS011;2713;42.680;23.310;2024-03-22T10:13:51;5.60;;;4.10;;
5379;SDS011;2713;42.680;23.310;2024-03-22T10:16:20;4.60;;;4.03;;
5379;SDS011;2713;42.680;23.310;2024-03-22T10:18:46;6.80;;;4.60;;
5379;SDS011;2713;42.680;23.310;2024-03-22T10:21:16;4.53;;;4.13;;
5379;SDS011;2713;42.680;23.310;2024-03-22T10:23:44;5.57;;;4.23;;
5379;SDS011;2713;42.680;23.310;2024-03-22T10:26:13;6.33;;;4.23;;
5379;SDS011;2713;42.680;23.310;2024-03-22T10:28:43;4.03;;;3.73;;
5379;SDS011;2713;42.680;23.310;2024-03-22T10:31:11;5.30;;;4.03;;
5379;SDS011;2713;42.680;23.310;2024-03-22T10:33:37;5.00;;;4.30;;
5379;SDS011;2713;42.680;23.310;2024-03-22T10:36:06;7.47;;;4.27;;
5379;SDS011;2713;42.680;23.310;2024-03-22T10:38:33;5.77;;;4.10;;
5379;SDS011;2713;42.680;23.310;2024-03-22T10:41:04;6.67;;;4.80;;
5379;SDS011;2713;42.680;23.310;2024-03-22T10:43:30;3.80;;;3.50;;
5379;SDS011;2713;42.680;23.310;2024-03-22T10:46:00;4.83;;;4.00;;
5379;SDS011;2713;42.680;23.310;2024-03-22T10:48:29;5.57;;;4.00;;
5379;SDS011;2713;42.680;23.310;2024-03-22T10:50:59;4.03;;;3.63;;
5379;SDS011;2713;42.680;23.310;2024-03-22T10:53:27;3.70;;;3.00;;
5379;SDS011;2713;42.680;23.310;2024-03-22T10:55:57;6.50;;;3.80;;
5379;SDS011;2713;42.680;23.310;2024-03-22T10:58:26;6.93;;;4.50;;
5379;SDS011;2713;42.680;23.310;2024-03-22T11:00:54;4.37;;;3.80;;
5379;SDS011;2713;42.680;23.310;2024-03-22T11:03:21;5.07;;;3.90;;
5379;SDS011;2713;42.680;23.310;2024-03-22T11:05:49;5.90;;;4.10;;
5379;SDS011;2713;42.680;23.310;2024-03-22T11:08:22;7.40;;;4.00;;
5379;SDS011;2713;42.680;23.310;2024-03-22T11:10:50;4.90;;;3.63;;
5379;SDS011;2713;42.680;23.310;2024-03-22T11:13:17;5.50;;;4.70;;
5379;SDS011;2713;42.680;23.310;2024-03-22T11:15:48;5.87;;;4.17;;
5379;SDS011;2713;42.680;23.310;2024-03-22T11:18:14;4.67;;;4.17;;
5379;SDS011;2713;42.680;23.310;2024-03-22T11:20:41;5.40;;;4.27;;
5379;SDS011;2713;42.680;23.310;2024-03-22T11:23:07;9.60;;;4.70;;
5379;SDS011;2713;42.680;23.310;2024-03-22T11:25:35;4.63;;;4.20;;
5379;SDS011;2713;42.680;23.310;2024-03-22T11:28:01;4.83;;;4.43;;
5379;SDS011;2713;42.680;23.310;2024-03-22T11:30:28;4.30;;;4.00;;
5379;SDS011;2713;42.680;23.310;2024-03-22T11:32:56;4.80;;;3.80;;
5379;SDS011;2713;42.680;23.310;2024-03-22T11:35:23;11.97;;;5.40;;
5379;SDS011;2713;42.680;23.310;2024-03-22T11:37:49;5.10;;;4.20;;
5379;SDS011;2713;42.680;23.310;2024-03-22T11:40:17;7.87;;;4.43;;
5379;SDS011;2713;42.680;23.310;2024-03-22T11:42:44;4.10;;;3.70;;
5379;SDS011;2713;42.680;23.310;2024-03-22T11:45:14;6.23;;;4.20;;
5379;SDS011;2713;42.680;23.310;2024-03-22T11:47:43;4.03;;;3.63;;
5379;SDS011;2713;42.680;23.310;2024-03-22T11:50:12;5.20;;;3.90;;
5379;SDS011;2713;42.680;23.310;2024-03-22T11:52:40;4.43;;;3.93;;
5379;SDS011;2713;42.680;23.310;2024-03-22T11:55:07;5.40;;;4.13;;
5379;SDS011;2713;42.680;23.310;2024-03-22T11:57:33;5.73;;;3.87;;
5379;SDS011;2713;42.680;23.310;2024-03-22T12:00:00;6.23;;;4.33;;
5379;SDS011;2713;42.680;23.310;2024-03-22T12:02:37;6.40;;;3.83;;
5379;SDS011;2713;42.680;23.310;2024-03-22T12:05:05;3.63;;;3.37;;
5379;SDS011;2713;42.680;23.310;2024-03-22T12:07:34;4.50;;;4.10;;
5379;SDS011;2713;42.680;23.310;2024-03-22T12:10:01;6.30;;;4.17;;
5379;SDS011;2713;42.680;23.310;2024-03-22T12:12:26;5.17;;;4.53;;
5379;SDS011;2713;42.680;23.310;2024-03-22T12:14:54;3.90;;;3.60;;
5379;SDS011;2713;42.680;23.310;2024-03-22T12:17:20;5.03;;;3.67;;
5379;SDS011;2713;42.680;23.310;2024-03-22T12:19:46;5.10;;;3.63;;
5379;SDS011;2713;42.680;23.310;2024-03-22T12:22:12;4.30;;;3.60;;
5379;SDS011;2713;42.680;23.310;2024-03-22T12:24:40;4.07;;;3.77;;
5379;SDS011;2713;42.680;23.310;2024-03-22T12:27:07;7.73;;;3.70;;
5379;SDS011;2713;42.680;23.310;2024-03-22T12:29:34;4.40;;;3.90;;
5379;SDS011;2713;42.680;23.310;2024-03-22T12:32:01;4.30;;;3.90;;
5379;SDS011;2713;42.680;23.310;2024-03-22T12:34:29;4.37;;;3.97;;
5379;SDS011;2713;42.680;23.310;2024-03-22T12:36:55;6.57;;;4.50;;
5379;SDS011;2713;42.680;23.310;2024-03-22T12:39:22;4.20;;;3.80;;
5379;SDS011;2713;42.680;23.310;2024-03-22T12:41:49;10.60;;;7.30;;
5379;SDS011;2713;42.680;23.310;2024-03-22T12:44:16;4.40;;;4.00;;
5379;SDS011;2713;42.680;23.310;2024-03-22T12:46:42;4.13;;;3.73;;
5379;SDS011;2713;42.680;23.310;2024-03-22T12:49:10;7.13;;;4.13;;
5379;SDS011;2713;42.680;23.310;2024-03-22T12:51:36;3.80;;;3.50;;
5379;SDS011;2713;42.680;23.310;2024-03-22T12:54:03;4.40;;;3.90;;
5379;SDS011;2713;42.680;23.310;2024-03-22T12:56:30;3.70;;;3.40;;
5379;SDS011;2713;42.680;23.310;2024-03-22T12:58:59;3.57;;;3.23;;
5379;SDS011;2713;42.680;23.310;2024-03-22T13:01:25;3.93;;;3.60;;
5379;SDS011;2713;42.680;23.310;2024-03-22T13:03:52;8.10;;;3.67;;
5379;SDS011;2713;42.680;23.310;2024-03-22T13:06:18;3.60;;;3.30;;
5379;SDS011;2713;42.680;23.310;2024-03-22T13:09:03;3.80;;;3.23;;
5379;SDS011;2713;42.680;23.310;2024-03-22T13:11:29;9.10;;;4.17;;
5379;SDS011;2713;42.680;23.310;2024-03-22T13:13:58;3.73;;;3.43;;
5379;SDS011;2713;42.680;23.310;2024-03-22T13:16:24;4.30;;;3.90;;
5379;SDS011;2713;42.680;23.310;2024-03-22T13:18:51;6.80;;;3.83;;
5379;SDS011;2713;42.680;23.310;2024-03-22T13:21:17;7.83;;;4.00;;
5379;SDS011;2713;42.680;23.310;2024-03-22T13:23:44;4.13;;;3.47;;
5379;SDS011;2713;42.680;23.310;2024-03-22T13:26:12;4.27;;;3.73;;
5379;SDS011;2713;42.680;23.310;2024-03-22T13:28:38;3.93;;;3.40;;
5379;SDS011;2713;42.680;23.310;2024-03-22T13:31:07;4.97;;;3.50;;
5379;SDS011;2713;42.680;23.310;2024-03-22T13:33:34;3.47;;;3.17;;
5379;SDS011;2713;42.680;23.310;2024-03-22T13:36:00;3.70;;;3.40;;
5379;SDS011;2713;42.680;23.310;2024-03-22T13:38:27;3.77;;;3.47;;
5379;SDS011;2713;42.680;23.310;2024-03-22T13:40:54;4.20;;;3.80;;
5379;SDS011;2713;42.680;23.310;2024-03-22T13:43:21;4.20;;;3.60;;
5379;SDS011;2713;42.680;23.310;2024-03-22T13:45:47;6.33;;;3.50;;
5379;SDS011;2713;42.680;23.310;2024-03-22T13:48:20;4.47;;;4.07;;
5379;SDS011;2713;42.680;23.310;2024-03-22T13:50:49;4.37;;;3.70;;
5379;SDS011;2713;42.680;23.310;2024-03-22T13:53:16;4.33;;;3.53;;
5379;SDS011;2713;42.680;23.310;2024-03-22T13:55:42;5.80;;;3.97;;
5379;SDS011;2713;42.680;23.310;2024-03-22T13:58:09;4.60;;;4.20;;
5379;SDS011;2713;42.680;23.310;2024-03-22T14:00:35;4.53;;;3.97;;
5379;SDS011;2713;42.680;23.310;2024-03-22T14:03:02;5.13;;;3.70;;
5379;SDS011;2713;42.680;23.310;2024-03-22T14:05:29;4.43;;;4.03;;
5379;SDS011;2713;42.680;23.310;2024-03-22T14:07:57;4.60;;;3.90;;
5379;SDS011;2713;42.680;23.310;2024-03-22T14:10:23;4.57;;;3.80;;
5379;SDS011;2713;42.680;23.310;2024-03-22T14:12:51;5.60;;;4.50;;
5379;SDS011;2713;42.680;23.310;2024-03-22T14:15:17;4.40;;;3.90;;
5379;SDS011;2713;42.680;23.310;2024-03-22T14:17:44;4.50;;;3.97;;
5379;SDS011;2713;42.680;23.310;2024-03-22T14:20:10;5.17;;;4.67;;
5379;SDS011;2713;42.680;23.310;2024-03-22T14:22:39;6.70;;;4.03;;
5379;SDS011;2713;42.680;23.310;2024-03-22T14:25:06;5.80;;;4.50;;
5379;SDS011;2713;42.680;23.310;2024-03-22T14:27:34;5.77;;;4.50;;
5379;SDS011;2713;42.680;23.310;2024-03-22T14:30:00;4.43;;;4.00;;
5379;SDS011;2713;42.680;23.310;2024-03-22T14:32:30;6.77;;;4.30;;
5379;SDS011;2713;42.680;23.310;2024-03-22T14:34:56;7.60;;;4.17;;
5379;SDS011;2713;42.680;23.310;2024-03-22T14:37:23;4.37;;;3.97;;
5379;SDS011;2713;42.680;23.310;2024-03-22T14:39:50;6.33;;;4.07;;
5379;SDS011;2713;42.680;23.310;2024-03-22T14:42:17;5.60;;;4.43;;
5379;SDS011;2713;42.680;23.310;2024-03-22T14:44:43;4.10;;;3.50;;
5379;SDS011;2713;42.680;23.310;2024-03-22T14:47:10;9.07;;;3.97;;
5379;SDS011;2713;42.680;23.310;2024-03-22T14:49:36;4.13;;;3.73;;
5379;SDS011;2713;42.680;23.310;2024-03-22T14:52:03;4.07;;;3.67;;
5379;SDS011;2713;42.680;23.310;2024-03-22T14:54:29;8.00;;;4.27;;
5379;SDS011;2713;42.680;23.310;2024-03-22T14:56:57;4.53;;;4.13;;
5379;SDS011;2713;42.680;23.310;2024-03-22T14:59:26;4.03;;;3.73;;
5379;SDS011;2713;42.680;23.310;2024-03-22T15:01:53;6.30;;;4.20;;
5379;SDS011;2713;42.680;23.310;2024-03-22T15:04:20;4.20;;;3.60;;
5379;SDS011;2713;42.680;23.310;2024-03-22T15:06:47;4.77;;;4.30;;
5379;SDS011;2713;42.680;23.310;2024-03-22T15:09:15;6.40;;;3.90;;
5379;SDS011;2713;42.680;23.310;2024-03-22T15:11:43;5.37;;;4.07;;
5379;SDS011;2713;42.680;23.310;2024-03-22T15:14:11;5.00;;;4.50;;
5379;SDS011;2713;42.680;23.310;2024-03-22T15:16:38;6.33;;;4.03;;
5379;SDS011;2713;42.680;23.310;2024-03-22T15:19:04;5.87;;;4.40;;
5379;SDS011;2713;42.680;23.310;2024-03-22T15:21:30;7.40;;;4.60;;
5379;SDS011;2713;42.680;23.310;2024-03-22T15:23:57;5.80;;;3.80;;
5379;SDS011;2713;42.680;23.310;2024-03-22T15:26:27;7.87;;;4.83;;
5379;SDS011;2713;42.680;23.310;2024-03-22T15:28:53;6.60;;;4.33;;
5379;SDS011;2713;42.680;23.310;2024-03-22T15:31:21;4.70;;;4.20;;
5379;SDS011;2713;42.680;23.310;2024-03-22T15:33:48;4.87;;;4.37;;
5379;SDS011;2713;42.680;23.310;2024-03-22T15:36:15;5.00;;;4.37;;
5379;SDS011;2713;42.680;23.310;2024-03-22T15:38:41;6.10;;;4.47;;
5379;SDS011;2713;42.680;23.310;2024-03-22T15:41:08;4.33;;;4.00;;
5379;SDS011;2713;42.680;23.310;2024-03-22T15:43:35;4.77;;;3.57;;
5379;SDS011;2713;42.680;23.310;2024-03-22T15:46:03;4.67;;;3.50;;
5379;SDS011;2713;42.680;23.310;2024-03-22T15:48:30;5.20;;;3.60;;
5379;SDS011;2713;42.680;23.310;2024-03-22T15:50:57;4.33;;;3.90;;
5379;SDS011;2713;42.680;23.310;2024-03-22T15:53:23;7.20;;;4.40;;
5379;SDS011;2713;42.680;23.310;2024-03-22T15:55:50;3.90;;;3.60;;
5379;SDS011;2713;42.680;23.310;2024-03-22T15:58:16;4.60;;;4.20;;
5379;SDS011;2713;42.680;23.310;2024-03-22T16:00:44;11.13;;;4.27;;
5379;SDS011;2713;42.680;23.310;2024-03-22T16:03:10;4.00;;;3.70;;
5379;SDS011;2713;42.680;23.310;2024-03-22T16:05:45;6.30;;;4.30;;
5379;SDS011;2713;42.680;23.310;2024-03-22T16:08:16;4.87;;;3.90;;
5379;SDS011;2713;42.680;23.310;2024-03-22T16:10:44;7.93;;;4.23;;
5379;SDS011;2713;42.680;23.310;2024-03-22T16:13:10;4.57;;;3.90;;
5379;SDS011;2713;42.680;23.310;2024-03-22T16:15:37;5.47;;;4.03;;
5379;SDS011;2713;42.680;23.310;2024-03-22T16:18:03;5.13;;;3.83;;
5379;SDS011;2713;42.680;23.310;2024-03-22T16:20:30;5.60;;;4.37;;
5379;SDS011;2713;42.680;23.310;2024-03-22T16:22:57;5.90;;;4.10;;
5379;SDS011;2713;42.680;23.310;2024-03-22T16:25:24;4.17;;;3.77;;
5379;SDS011;2713;42.680;23.310;2024-03-22T16:27:50;5.67;;;3.63;;
5379;SDS011;2713;42.680;23.310;2024-03-22T16:30:17;4.83;;;3.70;;
5379;SDS011;2713;42.680;23.310;2024-03-22T16:32:43;3.70;;;3.40;;
5379;SDS011;2713;42.680;23.310;2024-03-22T16:35:10;4.73;;;3.97;;
5379;SDS011;2713;42.680;23.310;2024-03-22T16:37:38;6.30;;;3.83;;
5379;SDS011;2713;42.680;23.310;2024-03-22T16:40:07;3.93;;;3.63;;
5379;SDS011;2713;42.680;23.310;2024-03-22T16:42:42;3.23;;;3.00;;
5379;SDS011;2713;42.680;23.310;2024-03-22T16:45:13;4.60;;;3.50;;
5379;SDS011;2713;42.680;23.310;2024-03-22T16:47:42;5.33;;;4.70;;
5379;SDS011;2713;42.680;23.310;2024-03-22T16:50:09;4.80;;;4.00;;
5379;SDS011;2713;42.680;23.310;2024-03-22T16:52:36;3.83;;;3.43;;
5379;SDS011;2713;42.680;23.310;2024-03-22T16:55:03;5.00;;;3.93;;
5379;SDS011;2713;42.680;23.310;2024-03-22T16:57:31;4.40;;;3.70;;
5379;SDS011;2713;42.680;23.310;2024-03-22T16:59:58;8.70;;;4.30;;
5379;SDS011;2713;42.680;23.310;2024-03-22T17:02:24;6.43;;;4.00;;
5379;SDS011;2713;42.680;23.310;2024-03-22T17:04:50;5.90;;;4.00;;
5379;SDS011;2713;42.680;23.310;2024-03-22T17:07:16;5.00;;;3.80;;
5379;SDS011;2713;42.680;23.310;2024-03-22T17:09:43;7.17;;;4.60;;